Time;durP1;ratioP1;P1;durP2;ratioP2;P2;SDS_P1;SDS_P2;PMS_P1;PMS_P2;Temp;Humidity;BMP_temperature;BMP_pressure;BME280_temperature;BME280_humidity;BME280_pressure;Samples;Min_cycle;Max_cycle;Signal;HPM_P1;HPM_P2
2022/11/23 00:01:22;;;;;;;17.58;5.00;;;;;;;7.06;100.00;99467.50;5018841;28;20026;-57
2022/11/23 00:03:52;;;;;;;20.27;5.53;;;;;;;7.09;100.00;99472.44;5010610;28;20501;-55
2022/11/23 00:06:20;;;;;;;22.35;5.20;;;;;;;7.06;100.00;99472.78;5023330;28;20559;-58
2022/11/23 00:08:45;;;;;;;19.70;5.60;;;;;;;7.06;100.00;99472.78;5019302;28;20029;-58
2022/11/23 00:11:11;;;;;;;18.77;4.90;;;;;;;7.04;100.00;99474.78;5017439;28;20112;-54
2022/11/23 00:13:39;;;;;;;15.35;4.85;;;;;;;7.05;100.00;99470.34;5015386;28;20029;-56
2022/11/23 00:16:06;;;;;;;17.73;4.50;;;;;;;7.05;100.00;99481.69;5022340;28;20033;-55
2022/11/23 00:18:31;;;;;;;18.60;4.70;;;;;;;7.04;100.00;99485.31;5014579;28;20026;-57
2022/11/23 00:20:56;;;;;;;16.23;4.45;;;;;;;7.06;100.00;99488.59;5016659;28;20531;-55
2022/11/23 00:23:22;;;;;;;17.48;4.45;;;;;;;7.07;100.00;99482.34;5019588;28;20021;-54
2022/11/23 00:25:47;;;;;;;15.88;4.28;;;;;;;7.08;100.00;99483.16;5019637;28;20034;-56
2022/11/23 00:28:12;;;;;;;19.80;4.45;;;;;;;7.07;100.00;99490.28;5015562;28;20037;-57
2022/11/23 00:30:38;;;;;;;19.20;4.65;;;;;;;7.11;100.00;99491.53;5020732;28;20044;-55
2022/11/23 00:33:03;;;;;;;17.15;4.25;;;;;;;7.09;100.00;99492.72;5015768;28;20061;-55
2022/11/23 00:35:28;;;;;;;18.83;4.47;;;;;;;7.09;100.00;99487.44;5011218;28;20447;-59
2022/11/23 00:37:53;;;;;;;17.02;3.80;;;;;;;7.10;100.00;99494.34;5020127;28;20029;-54
2022/11/23 00:40:19;;;;;;;17.52;4.25;;;;;;;7.10;100.00;99500.44;5016420;28;20026;-58
2022/11/23 00:42:44;;;;;;;15.00;3.97;;;;;;;7.09;100.00;99493.53;5018943;28;20038;-56
2022/11/23 00:45:09;;;;;;;16.67;4.38;;;;;;;7.09;100.00;99493.53;5024876;28;20120;-56
2022/11/23 00:47:35;;;;;;;16.23;3.90;;;;;;;7.11;100.00;99499.44;5015931;28;20061;-56
2022/11/23 00:50:01;;;;;;;18.80;4.18;;;;;;;7.13;100.00;99502.75;5009146;28;20033;-54
2022/11/23 00:52:27;;;;;;;16.80;3.88;;;;;;;7.11;100.00;99501.28;5021518;28;20420;-56
2022/11/23 00:54:52;;;;;;;17.88;4.05;;;;;;;7.14;100.00;99506.19;5012022;28;20045;-58
2022/11/23 00:57:17;;;;;;;15.18;3.70;;;;;;;7.11;100.00;99502.09;5010626;28;20029;-58
2022/11/23 00:59:42;;;;;;;14.75;3.50;;;;;;;7.13;100.00;99500.13;5011081;28;20042;-54
2022/11/23 01:02:08;;;;;;;13.60;3.95;;;;;;;7.13;100.00;99505.41;5006168;28;20391;-56
2022/11/23 01:04:33;;;;;;;13.63;3.28;;;;;;;7.15;100.00;99501.75;5019913;28;20168;-56
2022/11/23 01:06:58;;;;;;;17.27;3.83;;;;;;;7.13;100.00;99510.66;5017243;28;20037;-56
2022/11/23 01:09:25;;;;;;;16.85;3.53;;;;;;;7.17;100.00;99505.03;5012291;28;20107;-56
2022/11/23 01:11:52;;;;;;;16.55;3.90;;;;;;;7.14;100.00;99500.94;5016228;28;20033;-56
2022/11/23 01:14:18;;;;;;;19.30;3.58;;;;;;;7.13;100.00;99508.03;5020981;28;20039;-57
2022/11/23 01:16:43;;;;;;;14.85;3.78;;;;;;;7.13;100.00;99509.84;5017612;28;20045;-59
2022/11/23 01:19:14;;;;;;;13.00;3.40;;;;;;;7.12;100.00;99513.47;5015334;28;20038;-59
2022/11/23 01:21:39;;;;;;;13.45;3.58;;;;;;;7.13;100.00;99508.03;5012299;28;20382;-58
2022/11/23 01:24:15;;;;;;;17.42;4.00;;;;;;;7.11;100.00;99512.63;5017948;28;20040;-53
2022/11/23 01:26:43;;;;;;;16.00;3.70;;;;;;;7.12;100.00;99514.28;5016520;28;20393;-56
2022/11/23 01:29:08;;;;;;;14.75;3.72;;;;;;;7.13;100.00;99518.56;5017929;28;20025;-56
2022/11/23 01:31:34;;;;;;;15.00;3.70;;;;;;;7.13;100.00;99521.22;5019370;28;20789;-56
2022/11/23 01:34:01;;;;;;;12.02;3.03;;;;;;;7.10;100.00;99516.28;5024747;28;20038;-56
2022/11/23 01:36:28;;;;;;;12.20;3.38;;;;;;;7.08;100.00;99518.28;5019574;28;20028;-56
2022/11/23 01:38:54;;;;;;;17.48;3.70;;;;;;;7.10;100.00;99521.53;5015843;28;20084;-57
2022/11/23 01:41:22;;;;;;;16.02;3.47;;;;;;;7.09;100.00;99522.53;5021387;28;20116;-55
2022/11/23 01:43:49;;;;;;;16.17;3.35;;;;;;;7.12;100.00;99535.38;5022673;28;20057;-56
2022/11/23 01:46:14;;;;;;;15.73;3.35;;;;;;;7.13;100.00;99534.41;5017718;28;20048;-56
2022/11/23 01:48:44;;;;;;;13.15;3.20;;;;;;;7.13;100.00;99537.03;5011831;28;20042;-55
2022/11/23 01:51:13;;;;;;;13.00;3.47;;;;;;;7.15;100.00;99538.66;5024578;28;20037;-57
2022/11/23 01:53:40;;;;;;;14.15;3.20;;;;;;;7.15;100.00;99538.66;5015000;28;20424;-55
2022/11/23 01:56:07;;;;;;;14.85;3.25;;;;;;;7.16;100.00;99533.22;5021480;28;20435;-55
2022/11/23 01:58:38;;;;;;;15.05;3.40;;;;;;;7.15;100.00;99528.13;5018834;28;20037;-55
2022/11/23 02:01:04;;;;;;;11.32;3.10;;;;;;;7.20;100.00;99536.34;5025088;28;20096;-56
2022/11/23 02:03:31;;;;;;;16.05;3.42;;;;;;;7.20;100.00;99538.97;5016621;28;20037;-59
2022/11/23 02:06:01;;;;;;;12.60;3.10;;;;;;;7.19;100.00;99535.50;5012144;28;20696;-55
2022/11/23 02:08:27;;;;;;;15.68;3.53;;;;;;;7.21;100.00;99543.25;5017782;28;20037;-57
2022/11/23 02:10:54;;;;;;;12.98;3.45;;;;;;;7.20;100.00;99547.69;5017328;28;21025;-56
2022/11/23 02:13:21;;;;;;;14.93;3.40;;;;;;;7.22;100.00;99545.72;5019537;28;20029;-56
2022/11/23 02:15:47;;;;;;;10.85;3.08;;;;;;;7.22;100.00;99552.81;5021327;28;20040;-59
2022/11/23 02:18:16;;;;;;;13.40;3.33;;;;;;;7.22;100.00;99544.91;5023263;28;20025;-56
2022/11/23 02:20:43;;;;;;;11.15;3.20;;;;;;;7.20;100.00;99547.69;5021766;28;20029;-55
2022/11/23 02:23:25;;;;;;;16.73;3.58;;;;;;;7.24;100.00;99546.38;5025232;28;20029;-57
2022/11/23 02:25:58;;;;;;;16.25;3.40;;;;;;;7.17;100.00;99541.94;5017934;28;20489;-56
2022/11/23 02:28:34;;;;;;;18.52;3.60;;;;;;;7.22;100.00;99555.44;5023192;28;20029;-54
2022/11/23 02:31:01;;;;;;;15.73;3.38;;;;;;;7.23;100.00;99557.09;5012515;28;20048;-55
2022/11/23 02:33:27;;;;;;;13.15;3.25;;;;;;;7.23;100.00;99551.81;5022314;28;20584;-58
2022/11/23 02:35:55;;;;;;;13.63;3.28;;;;;;;7.24;100.00;99553.44;5027662;28;20062;-55
2022/11/23 02:38:23;;;;;;;13.52;3.45;;;;;;;7.26;100.00;99562.03;5010597;28;20689;-57
2022/11/23 02:40:49;;;;;;;12.80;3.70;;;;;;;7.25;100.00;99563.00;5020195;28;20068;-55
2022/11/23 02:43:14;;;;;;;14.10;3.30;;;;;;;7.26;100.00;99559.38;5022324;28;20069;-56
2022/11/23 02:45:49;;;;;;;11.93;3.22;;;;;;;7.25;100.00;99560.34;5019884;28;20060;-57
2022/11/23 02:48:15;;;;;;;14.73;3.70;;;;;;;7.26;100.00;99562.84;5013916;28;20025;-56
2022/11/23 02:50:40;;;;;;;16.95;3.55;;;;;;;7.31;100.00;99564.16;5022242;28;20435;-58
2022/11/23 02:53:06;;;;;;;14.57;3.65;;;;;;;7.29;100.00;99561.66;5020258;28;20033;-57
2022/11/23 02:55:31;;;;;;;15.43;3.92;;;;;;;7.27;100.00;99553.13;5017184;28;20099;-54
2022/11/23 02:57:57;;;;;;;15.18;3.72;;;;;;;7.29;100.00;99566.13;5024044;28;20047;-57
2022/11/23 03:00:22;;;;;;;21.80;4.03;;;;;;;7.26;100.00;99556.75;5007861;28;20030;-54
2022/11/23 03:02:47;;;;;;;14.15;3.67;;;;;;;7.24;100.00;99559.56;5015365;28;20557;-55
2022/11/23 03:05:13;;;;;;;13.23;3.50;;;;;;;7.26;100.00;99562.03;5019161;28;20030;-56
2022/11/23 03:07:38;;;;;;;17.83;3.90;;;;;;;7.25;100.00;99566.47;5018141;28;20041;-57
2022/11/23 03:10:04;;;;;;;12.95;3.70;;;;;;;7.25;100.00;99570.91;5017841;28;20049;-59
2022/11/23 03:12:29;;;;;;;13.70;3.25;;;;;;;7.23;100.00;99570.25;5028088;28;20038;-58
2022/11/23 03:14:54;;;;;;;17.25;3.63;;;;;;;7.23;100.00;99565.00;5018398;28;20045;-56
2022/11/23 03:17:20;;;;;;;17.55;3.60;;;;;;;7.23;100.00;99565.81;5010264;28;20061;-56
2022/11/23 03:19:45;;;;;;;15.43;3.63;;;;;;;7.19;100.00;99566.31;5019697;28;20107;-58
2022/11/23 03:22:10;;;;;;;16.58;3.50;;;;;;;7.20;100.00;99573.25;5022995;28;20025;-58
2022/11/23 03:24:35;;;;;;;20.63;4.13;;;;;;;7.22;100.00;99571.25;5018073;28;20075;-55
2022/11/23 03:27:01;;;;;;;18.73;3.80;;;;;;;7.21;100.00;99569.63;5025505;28;20481;-57
2022/11/23 03:29:26;;;;;;;16.77;3.60;;;;;;;7.19;100.00;99567.16;5020126;28;20036;-56
2022/11/23 03:31:53;;;;;;;15.65;3.40;;;;;;;7.21;100.00;99567.00;5019325;28;20025;-56
2022/11/23 03:34:18;;;;;;;16.92;3.90;;;;;;;7.20;100.00;99567.97;5012050;28;20715;-55
2022/11/23 03:36:44;;;;;;;22.17;4.05;;;;;;;7.18;100.00;99564.69;5016618;28;20033;-56
2022/11/23 03:39:09;;;;;;;16.92;3.75;;;;;;;7.18;100.00;99564.69;5020907;28;20123;-59
2022/11/23 03:41:35;;;;;;;15.70;3.72;;;;;;;7.17;100.00;99565.69;5015713;28;20064;-56
2022/11/23 03:44:00;;;;;;;19.48;3.92;;;;;;;7.17;100.00;99568.31;5016474;28;20087;-55
2022/11/23 03:46:25;;;;;;;16.35;3.38;;;;;;;7.16;100.00;99566.69;5011725;28;20674;-58
2022/11/23 03:48:51;;;;;;;20.10;3.85;;;;;;;7.18;100.00;99569.94;5021312;28;20034;-58
2022/11/23 03:51:16;;;;;;;17.33;3.40;;;;;;;7.16;100.00;99561.41;5020822;28;20056;-57
2022/11/23 03:53:41;;;;;;;13.98;3.50;;;;;;;7.16;100.00;99570.16;5016167;28;20120;-58
2022/11/23 03:56:07;;;;;;;17.45;3.80;;;;;;;7.15;100.00;99559.75;5014009;28;20037;-55
2022/11/23 03:58:33;;;;;;;13.85;3.55;;;;;;;7.15;100.00;99565.84;5016379;28;20041;-56
2022/11/23 04:00:58;;;;;;;15.15;3.60;;;;;;;7.15;100.00;99567.66;5016053;28;20064;-59
2022/11/23 04:03:23;;;;;;;15.32;3.60;;;;;;;7.13;100.00;99566.03;5012987;28;20074;-56
2022/11/23 04:05:49;;;;;;;18.60;3.58;;;;;;;7.13;100.00;99579.22;5006459;28;20462;-55
2022/11/23 04:08:14;;;;;;;14.50;3.50;;;;;;;7.13;100.00;99584.50;5003487;28;20033;-55
2022/11/23 04:10:39;;;;;;;17.55;3.85;;;;;;;7.14;100.00;99577.38;5015042;28;20030;-56
2022/11/23 04:13:04;;;;;;;15.35;3.33;;;;;;;7.13;100.00;99576.56;5018717;28;20228;-57
2022/11/23 04:15:30;;;;;;;18.65;4.07;;;;;;;7.15;100.00;99571.13;5021070;28;20041;-56
2022/11/23 04:17:55;;;;;;;19.90;3.25;;;;;;;7.15;100.00;99570.31;5017825;28;20080;-58
2022/11/23 04:20:20;;;;;;;16.42;3.67;;;;;;;7.18;100.00;99572.59;5010383;28;20033;-56
2022/11/23 04:22:45;;;;;;;15.38;3.30;;;;;;;7.18;100.00;99572.59;5015987;28;20037;-57
2022/11/23 04:25:11;;;;;;;13.98;3.30;;;;;;;7.18;100.00;99569.94;5010361;28;20732;-56
2022/11/23 04:27:36;;;;;;;16.77;3.90;;;;;;;7.18;100.00;99570.78;5015187;28;20037;-56
2022/11/23 04:30:02;;;;;;;16.58;3.33;;;;;;;7.19;100.00;99568.94;5009016;28;20083;-55
2022/11/23 04:32:27;;;;;;;19.33;3.47;;;;;;;7.20;100.00;99565.34;5015982;28;20060;-56
2022/11/23 04:34:52;;;;;;;19.92;3.53;;;;;;;7.22;100.00;99564.19;5016243;28;20045;-55
2022/11/23 04:37:18;;;;;;;21.10;4.00;;;;;;;7.20;100.00;99565.34;5022398;28;20772;-58
2022/11/23 04:39:43;;;;;;;19.45;3.58;;;;;;;7.19;100.00;99561.88;5019587;28;20183;-55
2022/11/23 04:42:11;;;;;;;20.00;3.60;;;;;;;7.21;100.00;99574.91;5009200;28;20505;-56
2022/11/23 04:44:36;;;;;;;15.90;3.50;;;;;;;7.20;100.00;99573.25;5016319;28;20042;-56
2022/11/23 04:47:01;;;;;;;17.67;4.03;;;;;;;7.22;100.00;99576.53;5011873;28;20167;-59
2022/11/23 04:49:27;;;;;;;19.42;4.00;;;;;;;7.22;100.00;99572.09;5014024;28;20034;-56
2022/11/23 04:51:52;;;;;;;20.58;3.85;;;;;;;7.19;100.00;99571.59;5021611;28;20504;-55
2022/11/23 04:54:17;;;;;;;15.90;3.50;;;;;;;7.18;100.00;99580.50;5018109;28;20037;-54
2022/11/23 04:56:43;;;;;;;15.30;3.38;;;;;;;7.15;100.00;99584.28;5013694;28;20046;-58
2022/11/23 04:59:08;;;;;;;18.35;3.55;;;;;;;7.13;100.00;99576.56;5013247;28;20076;-56
2022/11/23 05:01:34;;;;;;;16.50;3.75;;;;;;;7.10;100.00;99576.91;5009314;28;20052;-55
2022/11/23 05:03:59;;;;;;;16.75;3.47;;;;;;;7.07;100.00;99579.91;5017305;28;20040;-56
2022/11/23 05:06:24;;;;;;;18.17;3.35;;;;;;;7.04;100.00;99572.31;5018116;28;20503;-57
2022/11/23 05:08:50;;;;;;;15.65;3.60;;;;;;;7.04;100.00;99569.69;5011528;28;20038;-57
2022/11/23 05:11:15;;;;;;;18.15;4.00;;;;;;;7.02;100.00;99566.41;5013722;28;20735;-58
2022/11/23 05:13:41;;;;;;;15.98;3.92;;;;;;;6.99;100.00;99567.56;5021436;28;20048;-57
2022/11/23 05:16:06;;;;;;;18.45;3.67;;;;;;;6.96;100.00;99562.59;5009940;28;20092;-57
2022/11/23 05:18:31;;;;;;;16.85;4.05;;;;;;;6.95;100.00;99562.78;5018605;28;20034;-59
2022/11/23 05:20:57;;;;;;;19.75;4.05;;;;;;;6.94;100.00;99563.75;5016678;28;20034;-56
2022/11/23 05:23:22;;;;;;;19.83;3.63;;;;;;;6.91;100.00;99570.19;5023357;28;20033;-56
2022/11/23 05:25:47;;;;;;;16.90;3.83;;;;;;;6.90;100.00;99565.13;5017133;28;20033;-58
2022/11/23 05:28:15;;;;;;;17.77;3.75;;;;;;;6.86;100.00;99567.28;5012799;28;20040;-58
2022/11/23 05:30:40;;;;;;;19.40;4.20;;;;;;;6.87;100.00;99566.28;5010978;28;20064;-55
2022/11/23 05:33:05;;;;;;;18.27;3.78;;;;;;;6.88;100.00;99569.72;5014043;28;20034;-58
2022/11/23 05:35:31;;;;;;;17.80;4.07;;;;;;;6.86;100.00;99568.06;5020759;28;20087;-56
2022/11/23 05:37:57;;;;;;;18.55;4.47;;;;;;;6.85;100.00;99576.13;5013193;28;20366;-57
2022/11/23 05:40:22;;;;;;;19.67;4.28;;;;;;;6.84;100.00;99572.69;5026842;28;20036;-56
2022/11/23 05:42:48;;;;;;;23.55;4.65;;;;;;;6.83;100.00;99576.34;5023527;28;20033;-59
2022/11/23 05:45:13;;;;;;;21.73;4.28;;;;;;;6.81;100.00;99565.13;5018237;28;20045;-58
2022/11/23 05:47:39;;;;;;;18.83;4.20;;;;;;;6.81;100.00;99570.38;5013976;28;20077;-57
2022/11/23 05:50:04;;;;;;;17.90;3.97;;;;;;;6.79;100.00;99571.53;5016417;28;20049;-57
2022/11/23 05:52:30;;;;;;;19.25;3.80;;;;;;;6.78;100.00;99570.75;5007996;28;20038;-56
2022/11/23 05:54:55;;;;;;;22.20;4.10;;;;;;;6.77;100.00;99574.38;5009705;28;20049;-59
2022/11/23 05:57:21;;;;;;;18.48;4.35;;;;;;;6.76;100.00;99571.91;5010118;28;20108;-59
2022/11/23 05:59:47;;;;;;;20.05;4.65;;;;;;;6.72;100.00;99574.84;5009258;28;20622;-56
2022/11/23 06:02:12;;;;;;;19.63;4.32;;;;;;;6.69;100.00;99577.84;5013794;28;20113;-59
2022/11/23 06:04:38;;;;;;;21.20;4.60;;;;;;;6.66;100.00;99577.34;5007353;28;21020;-57
2022/11/23 06:07:04;;;;;;;21.35;4.07;;;;;;;6.65;100.00;99573.06;5009526;28;20052;-58
2022/11/23 06:09:29;;;;;;;23.75;4.22;;;;;;;6.66;100.00;99577.34;5007342;28;20033;-57
2022/11/23 06:11:55;;;;;;;18.13;4.15;;;;;;;6.66;100.00;99572.88;5007191;28;20056;-55
2022/11/23 06:14:20;;;;;;;18.10;3.70;;;;;;;6.68;100.00;99575.34;5010705;28;20037;-59
2022/11/23 06:16:46;;;;;;;19.77;4.00;;;;;;;6.67;100.00;99573.72;5008136;28;20043;-55
2022/11/23 06:19:11;;;;;;;23.27;4.10;;;;;;;6.67;100.00;99579.78;5012649;28;20069;-55
2022/11/23 06:21:36;;;;;;;21.67;4.68;;;;;;;6.68;100.00;99580.63;5011075;28;20567;-58
2022/11/23 06:24:02;;;;;;;23.83;4.60;;;;;;;6.70;100.00;99579.47;5011364;28;20405;-58
2022/11/23 06:26:27;;;;;;;20.85;4.28;;;;;;;6.70;100.00;99583.91;5010794;28;20057;-58
2022/11/23 06:28:52;;;;;;;19.98;4.25;;;;;;;6.71;100.00;99580.31;5014094;28;20059;-55
2022/11/23 06:31:18;;;;;;;20.63;4.28;;;;;;;6.73;100.00;99578.31;5012531;28;20092;-55
2022/11/23 06:33:43;;;;;;;20.00;4.30;;;;;;;6.74;100.00;99590.50;5011770;28;20481;-58
2022/11/23 06:36:09;;;;;;;21.95;3.97;;;;;;;6.71;100.00;99585.56;5016073;28;20095;-56
2022/11/23 06:38:35;;;;;;;21.85;4.43;;;;;;;6.68;100.00;99589.38;5012348;28;20075;-57
2022/11/23 06:41:01;;;;;;;22.30;4.40;;;;;;;6.69;100.00;99583.09;5017183;28;20440;-55
2022/11/23 06:43:27;;;;;;;24.20;4.45;;;;;;;6.66;100.00;99579.97;5018901;28;20045;-57
2022/11/23 06:45:53;;;;;;;20.52;4.70;;;;;;;6.64;100.00;99584.56;5010272;28;20025;-55
2022/11/23 06:48:19;;;;;;;28.65;4.72;;;;;;;6.66;100.00;99590.53;5009101;28;20029;-57
2022/11/23 06:50:44;;;;;;;21.98;4.63;;;;;;;6.67;100.00;99594.78;5014829;28;20048;-56
2022/11/23 06:53:12;;;;;;;23.63;4.05;;;;;;;6.65;100.00;99602.06;5016317;28;20030;-55
2022/11/23 06:55:38;;;;;;;20.42;4.15;;;;;;;6.66;100.00;99599.22;5017788;28;20074;-58
2022/11/23 06:58:03;;;;;;;15.68;4.13;;;;;;;6.67;100.00;99600.06;5014535;28;20041;-58
2022/11/23 07:00:29;;;;;;;19.35;3.75;;;;;;;6.67;100.00;99611.41;5012805;28;20029;-59
2022/11/23 07:02:55;;;;;;;21.23;4.20;;;;;;;6.66;100.00;99609.75;5016245;28;20049;-58
2022/11/23 07:05:21;;;;;;;20.45;4.00;;;;;;;6.65;100.00;99615.22;5011416;28;20030;-57
2022/11/23 07:07:46;;;;;;;20.00;4.15;;;;;;;6.66;100.00;99619.50;5012707;28;20488;-56
2022/11/23 07:10:12;;;;;;;19.17;3.90;;;;;;;6.64;100.00;99621.47;5012407;28;20029;-55
2022/11/23 07:12:39;;;;;;;19.80;4.05;;;;;;;6.64;100.00;99622.28;5012814;28;20038;-58
2022/11/23 07:15:06;;;;;;;20.38;4.25;;;;;;;6.63;100.00;99619.81;5012472;28;20041;-57
2022/11/23 07:17:31;;;;;;;17.75;3.75;;;;;;;6.62;100.00;99632.19;5015268;28;20036;-56
2022/11/23 07:19:56;;;;;;;24.08;3.88;;;;;;;6.62;100.00;99628.72;5011951;28;20036;-56
2022/11/23 07:22:21;;;;;;;21.92;3.95;;;;;;;6.59;100.00;99635.97;5012909;28;20033;-55
2022/11/23 07:24:47;;;;;;;20.17;3.40;;;;;;;6.59;100.00;99635.97;5016079;28;20120;-57
2022/11/23 07:27:12;;;;;;;21.80;3.80;;;;;;;6.57;100.00;99643.19;5010058;28;20512;-57
2022/11/23 07:29:37;;;;;;;21.38;3.97;;;;;;;6.57;100.00;99648.47;5015804;28;20057;-55
2022/11/23 07:32:05;;;;;;;14.80;3.70;;;;;;;6.48;99.96;99636.28;5012362;28;20030;-56
2022/11/23 07:34:30;;;;;;;23.77;4.07;;;;;;;6.49;100.00;99643.19;5009548;28;20030;-59
2022/11/23 07:36:56;;;;;;;20.77;3.88;;;;;;;6.48;100.00;99649.47;5014705;28;20029;-56
2022/11/23 07:39:21;;;;;;;18.80;3.65;;;;;;;6.46;99.98;99654.03;5010954;28;20157;-57
2022/11/23 07:41:49;;;;;;;21.75;3.92;;;;;;;6.44;100.00;99658.66;5012786;28;20059;-56
2022/11/23 07:44:14;;;;;;;22.67;4.18;;;;;;;6.42;100.00;99653.56;5008728;28;20041;-59
2022/11/23 07:46:40;;;;;;;17.70;3.90;;;;;;;6.43;99.69;99654.38;5013209;28;20432;-56
2022/11/23 07:49:05;;;;;;;17.98;4.53;;;;;;;6.39;99.32;99666.22;5012865;28;20033;-55
2022/11/23 07:51:31;;;;;;;21.55;3.50;;;;;;;6.40;99.81;99670.50;5012175;28;20160;-59
2022/11/23 07:53:57;;;;;;;17.48;3.83;;;;;;;6.41;99.32;99672.19;5017728;28;20044;-57
2022/11/23 07:56:22;;;;;;;18.25;3.78;;;;;;;6.42;99.13;99676.44;5011826;28;20029;-56
2022/11/23 07:58:48;;;;;;;20.40;3.58;;;;;;;6.45;98.94;99676.09;5019785;28;20602;-56
2022/11/23 08:01:18;;;;;;;25.77;3.97;;;;;;;6.42;98.84;99681.72;5016068;28;20150;-56
2022/11/23 08:03:47;;;;;;;16.98;3.75;;;;;;;6.43;98.07;99672.81;5018374;28;20501;-56
2022/11/23 08:06:13;;;;;;;15.38;3.22;;;;;;;6.42;98.47;99674.63;5017324;28;20040;-56
2022/11/23 08:08:39;;;;;;;17.73;3.85;;;;;;;6.42;98.42;99676.44;5017858;28;20381;-58
2022/11/23 08:11:05;;;;;;;19.75;3.50;;;;;;;6.40;98.29;99678.41;5023031;28;20021;-55
2022/11/23 08:13:31;;;;;;;20.52;3.63;;;;;;;6.40;98.60;99673.97;5021083;28;20037;-56
2022/11/23 08:15:56;;;;;;;19.23;3.58;;;;;;;6.44;97.91;99679.72;5021772;28;20048;-58
2022/11/23 08:18:25;;;;;;;15.25;3.38;;;;;;;6.44;97.61;99675.31;5009531;28;20477;-57
2022/11/23 08:20:50;;;;;;;15.52;3.50;;;;;;;6.44;97.46;99677.09;5018541;28;20060;-58
2022/11/23 08:23:15;;;;;;;17.05;3.60;;;;;;;6.44;97.02;99674.47;5020277;28;20068;-58
2022/11/23 08:25:40;;;;;;;16.33;3.40;;;;;;;6.46;97.19;99677.75;5010299;28;20073;-57
2022/11/23 08:28:06;;;;;;;15.75;3.40;;;;;;;6.52;96.25;99679.72;5021198;28;20037;-55
2022/11/23 08:30:33;;;;;;;15.55;3.63;;;;;;;6.51;96.77;99678.09;5022556;28;20033;-57
2022/11/23 08:33:01;;;;;;;17.20;3.88;;;;;;;6.57;96.85;99685.34;5021896;28;20086;-58
2022/11/23 08:35:26;;;;;;;18.38;3.90;;;;;;;6.60;96.31;99684.19;5020549;28;20052;-56
2022/11/23 08:37:51;;;;;;;19.35;3.58;;;;;;;6.61;95.40;99685.03;5007004;28;20033;-58
2022/11/23 08:40:17;;;;;;;16.67;3.53;;;;;;;6.63;95.98;99688.31;5008567;28;20682;-59
2022/11/23 08:42:43;;;;;;;16.10;3.40;;;;;;;6.66;95.62;99694.06;5019437;28;20493;-56
2022/11/23 08:45:09;;;;;;;18.77;3.28;;;;;;;6.68;95.24;99692.13;5009686;28;20075;-56
2022/11/23 08:47:35;;;;;;;20.17;3.63;;;;;;;6.70;94.98;99694.56;5017996;28;20769;-56
2022/11/23 08:50:00;;;;;;;14.23;3.38;;;;;;;6.72;95.37;99690.78;5012711;28;20062;-56
2022/11/23 08:52:25;;;;;;;16.85;3.40;;;;;;;6.76;94.46;99687.81;5009276;28;20088;-57
2022/11/23 08:54:51;;;;;;;20.88;3.53;;;;;;;6.76;94.22;99687.81;5015617;28;20038;-56
2022/11/23 08:57:16;;;;;;;18.80;3.63;;;;;;;6.78;94.20;99681.41;5015989;28;20036;-57
2022/11/23 08:59:42;;;;;;;17.23;3.55;;;;;;;6.81;93.67;99682.88;5010976;28;20037;-56
2022/11/23 09:02:11;;;;;;;14.55;2.92;;;;;;;6.78;93.72;99676.13;5016114;28;20030;-57
2022/11/23 09:04:36;;;;;;;16.13;3.40;;;;;;;6.90;93.17;99678.44;5019275;28;20037;-56
2022/11/23 09:07:02;;;;;;;14.85;3.25;;;;;;;6.91;93.57;99680.06;5014867;28;20037;-58
2022/11/23 09:09:27;;;;;;;19.73;3.53;;;;;;;6.91;93.14;99674.81;5020465;28;20037;-56
2022/11/23 09:11:53;;;;;;;18.70;3.67;;;;;;;6.96;92.77;99677.78;5017386;28;20088;-56
2022/11/23 09:14:18;;;;;;;15.02;3.55;;;;;;;6.96;92.52;99677.78;5011918;28;20057;-56
2022/11/23 09:16:43;;;;;;;16.50;3.50;;;;;;;6.99;92.73;99675.63;5011636;28;20116;-57
2022/11/23 09:19:12;;;;;;;19.20;3.70;;;;;;;7.04;91.85;99679.56;5013394;28;20493;-55
2022/11/23 09:21:38;;;;;;;19.10;3.55;;;;;;;7.06;92.00;99672.31;5016613;28;20037;-58
2022/11/23 09:24:04;;;;;;;16.60;3.40;;;;;;;7.07;92.06;99673.97;5008584;28;20083;-56
2022/11/23 09:26:32;;;;;;;16.65;3.25;;;;;;;7.10;91.69;99671.81;5013571;28;20042;-55
2022/11/23 09:28:57;;;;;;;20.25;3.05;;;;;;;7.17;91.08;99668.50;5020984;28;20049;-57
2022/11/23 09:31:23;;;;;;;20.80;3.33;;;;;;;7.11;91.41;99660.28;5006224;28;20072;-56
2022/11/23 09:33:51;;;;;;;20.05;3.70;;;;;;;7.12;90.57;99661.91;5009620;28;20112;-56
2022/11/23 09:36:17;;;;;;;17.17;3.35;;;;;;;7.19;90.12;99646.25;5015752;28;20064;-55
2022/11/23 09:38:42;;;;;;;14.18;3.25;;;;;;;7.17;90.37;99663.22;5008952;28;20333;-55
2022/11/23 09:41:33;;;;;;;15.95;3.83;;;;;;;7.18;90.73;99659.59;5016568;28;20029;-56
2022/11/23 09:44:06;;;;;;;14.35;3.33;;;;;;;7.16;90.54;99637.84;5004676;28;20103;-56
2022/11/23 09:46:35;;;;;;;;;;;;;;;7.25;92.31;99647.38;5018081;28;20378;-56
2022/11/23 09:49:19;;;;;;;14.25;3.20;;;;;;;7.24;89.93;99636.03;5014458;28;19944;-56
2022/11/23 09:51:45;;;;;;;12.05;3.17;;;;;;;7.22;89.88;99639.81;5018260;28;20049;-56
2022/11/23 09:54:19;;;;;;;19.02;3.38;;;;;;;7.24;89.45;99635.19;5018726;28;20040;-56
2022/11/23 09:56:48;;;;;;;20.02;3.65;;;;;;;7.24;89.52;99627.28;5011826;28;20034;-58
2022/11/23 09:59:29;;;;;;;15.35;3.10;;;;;;;7.25;89.20;99618.38;5016085;28;20037;-56
2022/11/23 10:01:59;;;;;;;16.67;3.22;;;;;;;7.28;88.55;99623.31;5021501;28;20049;-56
2022/11/23 10:04:26;;;;;;;13.50;3.08;;;;;;;7.27;88.72;99605.84;5020297;28;20447;-57
2022/11/23 10:06:57;;;;;;;15.63;3.45;;;;;;;7.31;88.28;99616.88;5019100;28;20057;-58
2022/11/23 10:10:04;;;;;;;13.45;2.75;;;;;;;7.33;88.32;99610.44;5008396;28;20034;-56
2022/11/23 10:12:38;;;;;;;16.30;3.60;;;;;;;7.35;89.05;99611.09;5021607;28;20420;-58
2022/11/23 10:15:38;;;;;;;14.77;3.25;;;;;;;7.45;89.16;99596.88;5022241;28;20514;-56
2022/11/23 10:18:24;;;;;;;12.88;3.00;;;;;;;7.44;89.04;99597.88;5014795;28;20165;-56
2022/11/23 10:20:55;;;;;;;16.60;3.17;;;;;;;7.47;87.76;99605.44;5018163;28;20033;-58
2022/11/23 10:23:53;;;;;;;14.45;3.08;;;;;;;7.54;88.71;99601.97;5025318;28;20041;-55
2022/11/23 10:26:25;;;;;;;15.57;2.90;;;;;;;7.56;87.61;99600.97;5014830;28;20057;-56
2022/11/23 10:28:51;;;;;;;15.80;2.90;;;;;;;7.61;88.04;99601.25;5016804;28;20037;-56
2022/11/23 10:31:22;;;;;;;15.15;2.83;;;;;;;7.67;86.92;99609.31;5019887;28;20037;-57
2022/11/23 10:33:55;;;;;;;11.30;2.55;;;;;;;7.71;87.73;99603.69;5012599;28;20048;-56
2022/11/23 10:36:20;;;;;;;14.98;2.85;;;;;;;7.76;86.23;99598.72;5015856;28;20143;-56
2022/11/23 10:38:49;;;;;;;13.60;2.88;;;;;;;7.83;86.06;99599.66;5013491;28;20156;-57
2022/11/23 10:41:15;;;;;;;11.52;2.78;;;;;;;7.85;85.74;99595.00;5019529;28;20056;-60
2022/11/23 10:43:54;;;;;;;14.50;2.70;;;;;;;7.91;86.14;99591.69;5016494;28;20041;-56
2022/11/23 10:46:28;;;;;;;12.35;2.72;;;;;;;7.96;86.99;99593.81;5019685;28;20698;-56
2022/11/23 10:48:54;;;;;;;12.10;2.72;;;;;;;8.00;85.59;99594.28;5019479;28;20042;-58
2022/11/23 10:51:28;;;;;;;12.25;2.95;;;;;;;7.97;84.70;99594.63;5014138;28;20029;-57
2022/11/23 10:54:05;;;;;;;14.27;2.80;;;;;;;7.93;85.52;99594.97;5014500;28;20841;-57
2022/11/23 10:56:32;;;;;;;11.35;2.50;;;;;;;7.94;85.47;99591.34;5007914;28;20406;-57
2022/11/23 10:58:57;;;;;;;15.55;3.03;;;;;;;7.96;86.30;99587.69;5016705;28;20572;-59
2022/11/23 11:01:28;;;;;;;10.40;2.83;;;;;;;8.02;85.45;99576.44;5007893;28;20044;-57
2022/11/23 11:03:58;;;;;;;12.48;2.63;;;;;;;8.10;85.08;99573.75;5007693;28;20052;-56
2022/11/23 11:06:29;;;;;;;12.90;2.70;;;;;;;8.12;85.46;99560.34;5012330;28;20124;-56
2022/11/23 11:09:03;;;;;;;11.13;2.53;;;;;;;8.15;85.18;99566.09;5007032;28;20038;-55
2022/11/23 11:11:35;;;;;;;13.23;2.50;;;;;;;8.21;84.81;99565.41;5011509;28;22369;-57
2022/11/23 11:14:05;;;;;;;8.73;2.40;;;;;;;8.25;83.96;99554.50;5013263;28;20037;-56
2022/11/23 11:16:36;;;;;;;12.15;2.65;;;;;;;8.26;82.93;99566.69;5011966;28;20365;-57
2022/11/23 11:19:35;;;;;;;9.93;2.50;;;;;;;8.33;84.68;99560.53;5013104;28;20054;-56
2022/11/23 11:22:33;;;;;;;9.27;2.45;;;;;;;8.25;84.51;99559.78;4990632;28;20045;-59
2022/11/23 11:25:00;;;;;;;12.23;2.60;;;;;;;8.28;83.09;99559.41;5006860;28;20120;-56
2022/11/23 11:27:28;;;;;;;9.02;2.50;;;;;;;8.24;84.28;99551.00;5007276;28;20029;-56
2022/11/23 11:29:58;;;;;;;11.23;2.45;;;;;;;8.26;83.24;99541.13;5007079;28;20037;-57